Time;durP1;ratioP1;P1;durP2;ratioP2;P2;SDS_P1;SDS_P2;PMS_P1;PMS_P2;Temp;Humidity;BMP_temperature;BMP_pressure;BME280_temperature;BME280_humidity;BME280_pressure;Samples;Min_cycle;Max_cycle;Signal;HPM_P1;HPM_P2
2023/08/21 00:01:40;;;;;;;10.52;9.13;;;;;;;;;;5036519;28;20027;-64
2023/08/21 00:04:05;;;;;;;10.25;9.20;;;;;;;;;;5036550;28;20045;-64
2023/08/21 00:06:31;;;;;;;10.70;9.70;;;;;;;;;;5018856;28;20112;-64
2023/08/21 00:08:56;;;;;;;10.73;9.63;;;;;;;;;;5018673;28;20084;-66
2023/08/21 00:11:22;;;;;;;10.27;9.32;;;;;;;;;;5036637;28;20029;-66
2023/08/21 00:13:49;;;;;;;10.82;9.85;;;;;;;;;;5036365;28;20037;-65
2023/08/21 00:16:14;;;;;;;10.63;9.70;;;;;;;;;;5035739;28;20181;-65
2023/08/21 00:18:40;;;;;;;9.90;9.02;;;;;;;;;;5035940;28;20073;-65
2023/08/21 00:21:05;;;;;;;10.43;9.35;;;;;;;;;;5018864;28;20082;-65
2023/08/21 00:23:31;;;;;;;9.93;9.05;;;;;;;;;;5018591;28;20056;-66
2023/08/21 00:25:56;;;;;;;9.70;8.85;;;;;;;;;;5019030;28;20120;-66
2023/08/21 00:28:22;;;;;;;9.25;8.38;;;;;;;;;;5036052;28;20040;-65
2023/08/21 00:30:48;;;;;;;9.73;8.93;;;;;;;;;;5002190;28;20426;-65
2023/08/21 00:33:14;;;;;;;10.70;9.80;;;;;;;;;;5036013;28;20103;-65
2023/08/21 00:35:39;;;;;;;10.63;9.68;;;;;;;;;;5018192;28;20033;-65
2023/08/21 00:38:05;;;;;;;10.35;9.48;;;;;;;;;;5018100;28;20033;-65
2023/08/21 00:40:30;;;;;;;11.27;10.25;;;;;;;;;;5036442;28;20097;-65
2023/08/21 00:42:56;;;;;;;10.30;9.30;;;;;;;;;;5018121;28;20384;-65
2023/08/21 00:45:21;;;;;;;9.85;9.02;;;;;;;;;;5018032;28;20512;-65
2023/08/21 00:47:47;;;;;;;10.80;9.80;;;;;;;;;;5018417;28;20380;-65
2023/08/21 00:50:12;;;;;;;9.80;9.00;;;;;;;;;;5035708;28;20041;-64
2023/08/21 00:52:39;;;;;;;10.63;9.48;;;;;;;;;;5035664;28;20036;-65
2023/08/21 00:55:05;;;;;;;10.23;9.38;;;;;;;;;;5017866;28;20029;-65
2023/08/21 00:57:31;;;;;;;10.32;9.32;;;;;;;;;;5035752;28;20372;-65
2023/08/21 00:59:56;;;;;;;10.30;9.40;;;;;;;;;;5017712;28;20029;-62
2023/08/21 01:02:22;;;;;;;10.63;9.65;;;;;;;;;;5018118;28;20037;-62
2023/08/21 01:04:47;;;;;;;10.48;9.57;;;;;;;;;;5035985;28;20018;-61
2023/08/21 01:07:13;;;;;;;9.57;8.77;;;;;;;;;;5035385;28;20533;-60
2023/08/21 01:09:39;;;;;;;9.00;8.25;;;;;;;;;;5017615;28;20030;-60
2023/08/21 01:12:10;;;;;;;10.32;9.10;;;;;;;;;;5017471;28;20043;-61
2023/08/21 01:14:35;;;;;;;11.85;10.65;;;;;;;;;;5017509;28;20493;-61
2023/08/21 01:17:02;;;;;;;11.57;10.38;;;;;;;;;;5017328;28;20042;-61
2023/08/21 01:19:33;;;;;;;11.00;10.00;;;;;;;;;;5001088;28;20493;-64
2023/08/21 01:22:00;;;;;;;9.63;8.82;;;;;;;;;;5017433;28;20111;-65
2023/08/21 01:24:25;;;;;;;9.82;9.00;;;;;;;;;;5017136;28;20047;-62
2023/08/21 01:26:50;;;;;;;9.15;8.50;;;;;;;;;;5017228;28;20025;-62
2023/08/21 01:29:16;;;;;;;9.25;8.35;;;;;;;;;;5034722;28;20400;-60
2023/08/21 01:31:46;;;;;;;9.88;8.88;;;;;;;;;;5034876;28;20029;-61
2023/08/21 01:34:13;;;;;;;10.13;9.25;;;;;;;;;;5017519;28;20036;-63
2023/08/21 01:36:39;;;;;;;10.55;9.38;;;;;;;;;;5035069;28;20029;-62
2023/08/21 01:39:07;;;;;;;10.25;9.43;;;;;;;;;;5017031;28;20025;-63
2023/08/21 01:41:32;;;;;;;10.93;10.02;;;;;;;;;;5017348;28;20471;-63
2023/08/21 01:43:58;;;;;;;10.30;9.02;;;;;;;;;;5017326;28;20036;-63
2023/08/21 01:46:23;;;;;;;11.57;9.43;;;;;;;;;;5016880;28;20025;-62
2023/08/21 01:48:48;;;;;;;10.15;9.20;;;;;;;;;;5016857;28;20029;-63
2023/08/21 01:51:14;;;;;;;10.13;9.32;;;;;;;;;;5034780;28;20014;-66
2023/08/21 01:53:39;;;;;;;9.65;8.75;;;;;;;;;;5034454;28;20543;-68
2023/08/21 01:56:04;;;;;;;10.65;9.65;;;;;;;;;;5034988;28;20465;-66
2023/08/21 01:58:32;;;;;;;9.85;9.05;;;;;;;;;;5016585;28;20013;-66
2023/08/21 02:00:57;;;;;;;9.30;8.57;;;;;;;;;;5016644;28;20030;-65
2023/08/21 02:03:24;;;;;;;9.68;8.77;;;;;;;;;;5034859;28;20032;-64
2023/08/21 02:05:50;;;;;;;9.98;9.00;;;;;;;;;;5034537;28;20029;-64
2023/08/21 02:08:16;;;;;;;9.38;8.57;;;;;;;;;;5016519;28;20084;-67
2023/08/21 02:10:51;;;;;;;9.65;8.85;;;;;;;;;;5034414;28;20030;-67
2023/08/21 02:13:17;;;;;;;9.75;8.82;;;;;;;;;;5034432;28;20428;-67
2023/08/21 02:15:43;;;;;;;9.70;8.88;;;;;;;;;;5016377;28;20040;-65
2023/08/21 02:18:09;;;;;;;9.90;8.85;;;;;;;;;;4999984;28;20029;-65
2023/08/21 02:20:34;;;;;;;9.88;9.07;;;;;;;;;;5034587;28;20025;-62
2023/08/21 02:23:00;;;;;;;11.15;9.02;;;;;;;;;;5033964;28;20477;-62
2023/08/21 02:25:25;;;;;;;10.82;9.35;;;;;;;;;;5016287;28;20578;-62
2023/08/21 02:27:51;;;;;;;9.70;8.70;;;;;;;;;;5033914;28;20037;-62
2023/08/21 02:30:17;;;;;;;9.23;8.52;;;;;;;;;;5016166;28;20029;-62
2023/08/21 02:32:42;;;;;;;9.60;8.65;;;;;;;;;;5034105;28;20041;-64
2023/08/21 02:35:08;;;;;;;10.82;9.93;;;;;;;;;;4999764;28;20389;-67
2023/08/21 02:37:34;;;;;;;9.77;8.88;;;;;;;;;;5033935;28;20030;-67
2023/08/21 02:39:59;;;;;;;10.65;9.73;;;;;;;;;;5033153;28;20548;-67
2023/08/21 02:42:25;;;;;;;11.43;10.32;;;;;;;;;;5016014;28;20120;-67
2023/08/21 02:44:50;;;;;;;12.15;10.07;;;;;;;;;;5033682;28;20052;-61
2023/08/21 02:47:15;;;;;;;11.27;10.25;;;;;;;;;;5033946;28;20121;-62
2023/08/21 02:49:41;;;;;;;10.48;9.50;;;;;;;;;;5033642;28;20104;-62
2023/08/21 02:52:06;;;;;;;11.77;9.60;;;;;;;;;;5033642;28;20487;-65
2023/08/21 02:54:32;;;;;;;9.88;8.93;;;;;;;;;;5033832;28;20459;-64
2023/08/21 02:56:57;;;;;;;9.73;8.82;;;;;;;;;;5033747;28;20025;-64
2023/08/21 02:59:22;;;;;;;10.05;8.70;;;;;;;;;;5033540;28;20029;-66
2023/08/21 03:01:48;;;;;;;10.27;9.23;;;;;;;;;;5034033;28;20030;-63
2023/08/21 03:04:13;;;;;;;10.52;9.45;;;;;;;;;;5016049;28;20091;-63
2023/08/21 03:06:38;;;;;;;10.52;9.52;;;;;;;;;;5033467;28;20389;-63
2023/08/21 03:09:04;;;;;;;10.45;9.57;;;;;;;;;;5015850;28;20032;-64
2023/08/21 03:11:29;;;;;;;10.80;9.75;;;;;;;;;;5015838;28;20530;-60
2023/08/21 03:13:54;;;;;;;10.15;9.23;;;;;;;;;;5033937;28;20033;-60
2023/08/21 03:16:20;;;;;;;11.82;9.65;;;;;;;;;;5015690;28;20038;-62
2023/08/21 03:18:56;;;;;;;10.63;9.55;;;;;;;;;;5015576;28;20030;-62
2023/08/21 03:21:23;;;;;;;11.25;9.70;;;;;;;;;;5015895;28;20544;-66
2023/08/21 03:23:54;;;;;;;12.80;10.15;;;;;;;;;;5015756;28;20029;-63
2023/08/21 03:26:19;;;;;;;13.98;10.23;;;;;;;;;;5033213;28;20380;-62
2023/08/21 03:28:45;;;;;;;10.93;9.88;;;;;;;;;;5015459;28;20033;-63
2023/08/21 03:31:10;;;;;;;11.02;9.93;;;;;;;;;;5015440;28;20021;-62
2023/08/21 03:33:35;;;;;;;10.70;9.55;;;;;;;;;;5033141;28;20036;-63
2023/08/21 03:36:01;;;;;;;10.23;9.23;;;;;;;;;;5015576;28;20025;-62
2023/08/21 03:38:26;;;;;;;10.38;9.25;;;;;;;;;;5015406;28;20030;-62
2023/08/21 03:40:51;;;;;;;10.65;9.38;;;;;;;;;;5015451;28;20100;-63
2023/08/21 03:43:17;;;;;;;10.23;9.05;;;;;;;;;;5015454;28;20033;-62
2023/08/21 03:45:42;;;;;;;10.68;9.57;;;;;;;;;;5015400;28;20032;-62
2023/08/21 03:48:08;;;;;;;11.93;10.20;;;;;;;;;;5015393;28;20381;-62
2023/08/21 03:50:33;;;;;;;14.23;10.02;;;;;;;;;;5015600;28;20041;-62
2023/08/21 03:52:58;;;;;;;12.07;10.57;;;;;;;;;;5019027;28;20393;-60
2023/08/21 03:55:24;;;;;;;11.85;10.23;;;;;;;;;;5018888;28;20378;-60
2023/08/21 03:57:49;;;;;;;12.90;10.10;;;;;;;;;;5036531;28;20407;-60
2023/08/21 04:00:15;;;;;;;12.18;10.73;;;;;;;;;;5036563;28;20028;-61
2023/08/21 04:02:43;;;;;;;13.30;11.43;;;;;;;;;;5019593;28;20048;-61
2023/08/21 04:05:10;;;;;;;12.25;11.05;;;;;;;;;;5019062;28;20458;-61
2023/08/21 04:07:35;;;;;;;14.93;11.77;;;;;;;;;;5018799;28;20124;-61
2023/08/21 04:10:01;;;;;;;15.43;11.95;;;;;;;;;;5018720;28;20111;-61
2023/08/21 04:12:26;;;;;;;13.65;10.75;;;;;;;;;;5036424;28;20095;-61
2023/08/21 04:14:51;;;;;;;11.50;10.43;;;;;;;;;;5018613;28;20487;-61
2023/08/21 04:17:21;;;;;;;13.13;10.68;;;;;;;;;;5018521;28;20025;-61
2023/08/21 04:19:46;;;;;;;12.50;11.23;;;;;;;;;;5019401;28;20136;-61
2023/08/21 04:22:11;;;;;;;13.73;11.13;;;;;;;;;;5018396;28;20469;-60
2023/08/21 04:24:36;;;;;;;11.82;10.63;;;;;;;;;;5018277;28;20053;-61
2023/08/21 04:27:02;;;;;;;11.63;10.52;;;;;;;;;;5018332;28;20028;-61
2023/08/21 04:29:27;;;;;;;12.07;10.27;;;;;;;;;;5018241;28;20469;-60
2023/08/21 04:31:53;;;;;;;14.20;10.27;;;;;;;;;;5018240;28;20053;-61
2023/08/21 04:34:19;;;;;;;11.02;9.68;;;;;;;;;;5018163;28;20029;-61
2023/08/21 04:36:49;;;;;;;11.95;10.73;;;;;;;;;;5002249;28;20377;-60
2023/08/21 04:39:15;;;;;;;12.68;9.73;;;;;;;;;;5035948;28;20026;-61
2023/08/21 04:41:41;;;;;;;12.10;10.02;;;;;;;;;;5019016;28;20036;-61
2023/08/21 04:44:07;;;;;;;12.45;9.77;;;;;;;;;;5018058;28;20025;-61
2023/08/21 04:46:32;;;;;;;12.10;9.95;;;;;;;;;;5035711;28;20026;-60
2023/08/21 04:48:58;;;;;;;12.43;11.23;;;;;;;;;;5017988;28;20493;-61
2023/08/21 04:51:24;;;;;;;13.82;10.82;;;;;;;;;;5017861;28;20018;-60
2023/08/21 04:53:49;;;;;;;15.52;11.65;;;;;;;;;;5017994;28;20040;-60
2023/08/21 04:56:18;;;;;;;12.23;11.02;;;;;;;;;;5001892;28;20094;-60
2023/08/21 04:58:43;;;;;;;12.35;10.98;;;;;;;;;;5017685;28;20423;-60
2023/08/21 05:01:08;;;;;;;13.07;11.77;;;;;;;;;;5017704;28;20025;-60
2023/08/21 05:03:37;;;;;;;12.57;11.27;;;;;;;;;;5001241;28;20022;-61
2023/08/21 05:06:04;;;;;;;12.23;10.88;;;;;;;;;;5017557;28;20029;-61
2023/08/21 05:08:29;;;;;;;13.10;11.35;;;;;;;;;;5017533;28;20040;-60
2023/08/21 05:10:58;;;;;;;12.23;10.98;;;;;;;;;;5017438;28;20040;-61
2023/08/21 05:13:25;;;;;;;12.32;11.02;;;;;;;;;;5017481;28;20389;-61
2023/08/21 05:15:54;;;;;;;17.88;12.38;;;;;;;;;;5017417;28;20043;-61
2023/08/21 05:18:20;;;;;;;14.30;12.93;;;;;;;;;;5017404;28;20148;-61
2023/08/21 05:20:46;;;;;;;15.57;13.10;;;;;;;;;;5017604;28;20492;-61
2023/08/21 05:23:12;;;;;;;17.08;13.48;;;;;;;;;;5017209;28;20022;-61
2023/08/21 05:25:38;;;;;;;19.08;15.05;;;;;;;;;;5000979;28;20519;-61
2023/08/21 05:28:04;;;;;;;18.45;15.07;;;;;;;;;;5034995;28;20112;-61
2023/08/21 05:30:29;;;;;;;21.65;15.25;;;;;;;;;;5034526;28;20120;-63
2023/08/21 05:32:55;;;;;;;17.27;14.50;;;;;;;;;;4999777;28;20079;-61
2023/08/21 05:35:21;;;;;;;16.75;13.68;;;;;;;;;;5016466;28;20033;-61
2023/08/21 05:37:47;;;;;;;15.38;13.18;;;;;;;;;;5016366;28;20021;-66
2023/08/21 05:40:12;;;;;;;18.85;14.13;;;;;;;;;;5035116;28;20104;-66
2023/08/21 05:42:38;;;;;;;14.88;12.32;;;;;;;;;;5017201;28;20022;-66
2023/08/21 05:45:04;;;;;;;15.20;12.90;;;;;;;;;;5017176;28;20030;-66
2023/08/21 05:47:31;;;;;;;16.98;14.15;;;;;;;;;;5000693;28;20033;-61
2023/08/21 05:49:57;;;;;;;16.88;14.38;;;;;;;;;;5016263;28;20363;-61
2023/08/21 05:52:22;;;;;;;16.88;12.75;;;;;;;;;;5016227;28;20029;-61
2023/08/21 05:54:48;;;;;;;13.93;12.48;;;;;;;;;;5033929;28;20381;-66
2023/08/21 05:57:13;;;;;;;17.58;12.55;;;;;;;;;;5034135;28;20632;-60
2023/08/21 05:59:43;;;;;;;15.52;12.05;;;;;;;;;;5016601;28;20033;-60
2023/08/21 06:02:11;;;;;;;14.45;12.57;;;;;;;;;;5014886;28;20064;-60
2023/08/21 06:04:37;;;;;;;14.95;12.80;;;;;;;;;;5014448;28;20053;-61
2023/08/21 06:07:03;;;;;;;15.43;13.88;;;;;;;;;;5034104;28;20405;-61
2023/08/21 06:09:29;;;;;;;16.27;14.57;;;;;;;;;;5016725;28;20136;-66
2023/08/21 06:11:55;;;;;;;18.40;14.05;;;;;;;;;;5016802;28;20034;-66
2023/08/21 06:14:28;;;;;;;13.90;12.23;;;;;;;;;;5015420;28;20091;-66
2023/08/21 06:16:58;;;;;;;14.60;12.18;;;;;;;;;;5034753;28;20350;-66
2023/08/21 06:19:24;;;;;;;12.88;11.48;;;;;;;;;;5033327;28;20396;-66
2023/08/21 06:21:49;;;;;;;14.77;12.00;;;;;;;;;;5034339;28;20035;-66
2023/08/21 06:24:15;;;;;;;15.95;12.63;;;;;;;;;;5034289;28;20096;-66
2023/08/21 06:26:40;;;;;;;14.68;12.82;;;;;;;;;;5016934;28;20029;-66
2023/08/21 06:29:05;;;;;;;15.02;13.48;;;;;;;;;;5016563;28;20413;-66
2023/08/21 06:31:31;;;;;;;14.70;12.43;;;;;;;;;;5034218;28;20029;-66
2023/08/21 06:33:57;;;;;;;16.23;13.68;;;;;;;;;;5016626;28;20034;-66
2023/08/21 06:36:22;;;;;;;15.20;13.52;;;;;;;;;;5000204;28;20032;-66
2023/08/21 06:38:48;;;;;;;14.82;13.27;;;;;;;;;;5032870;28;20037;-66
2023/08/21 06:41:13;;;;;;;16.23;13.10;;;;;;;;;;5034188;28;20029;-66
2023/08/21 06:43:38;;;;;;;16.05;13.07;;;;;;;;;;5016104;28;20116;-67
2023/08/21 06:46:04;;;;;;;15.07;13.18;;;;;;;;;;4999979;28;20025;-66
2023/08/21 06:48:29;;;;;;;15.35;13.90;;;;;;;;;;5015160;28;20057;-67
2023/08/21 06:50:56;;;;;;;19.60;15.68;;;;;;;;;;5032739;28;20136;-66
2023/08/21 06:53:22;;;;;;;19.50;16.15;;;;;;;;;;5015885;28;20392;-66
2023/08/21 06:55:47;;;;;;;16.50;13.75;;;;;;;;;;5030948;28;20116;-61
2023/08/21 06:58:12;;;;;;;18.00;15.75;;;;;;;;;;5014659;28;20029;-61
2023/08/21 07:00:39;;;;;;;34.40;17.42;;;;;;;;;;5033484;28;20484;-66
2023/08/21 07:03:07;;;;;;;45.70;17.70;;;;;;;;;;5033794;28;20453;-66
2023/08/21 07:05:33;;;;;;;21.30;13.95;;;;;;;;;;5033549;28;20071;-66
2023/08/21 07:07:58;;;;;;;14.63;12.93;;;;;;;;;;5033715;28;20457;-66
2023/08/21 07:10:23;;;;;;;19.90;14.40;;;;;;;;;;5016019;28;20045;-66
2023/08/21 07:12:49;;;;;;;20.23;14.80;;;;;;;;;;5016084;28;20041;-65
2023/08/21 07:15:15;;;;;;;18.23;14.45;;;;;;;;;;4999279;28;20027;-65
2023/08/21 07:17:40;;;;;;;15.00;13.30;;;;;;;;;;5033625;28;20037;-65
2023/08/21 07:20:06;;;;;;;15.80;13.38;;;;;;;;;;5033246;28;20022;-66
2023/08/21 07:22:31;;;;;;;15.40;13.25;;;;;;;;;;5015735;28;20083;-66
2023/08/21 07:24:57;;;;;;;21.35;16.00;;;;;;;;;;5033582;28;20033;-66
2023/08/21 07:27:22;;;;;;;24.52;16.73;;;;;;;;;;5036681;28;20040;-66
2023/08/21 07:29:48;;;;;;;14.85;13.38;;;;;;;;;;5037759;28;20100;-66
2023/08/21 07:32:13;;;;;;;23.95;16.67;;;;;;;;;;5037299;28;20460;-66
2023/08/21 07:34:38;;;;;;;20.58;14.80;;;;;;;;;;5037560;28;20029;-66
2023/08/21 07:37:04;;;;;;;20.30;15.18;;;;;;;;;;5037237;28;20431;-66
2023/08/21 07:39:29;;;;;;;18.63;15.60;;;;;;;;;;5037329;28;20139;-66
2023/08/21 07:41:55;;;;;;;16.05;13.43;;;;;;;;;;5019779;28;20029;-66
2023/08/21 07:44:20;;;;;;;19.15;14.95;;;;;;;;;;5037762;28;20025;-66
2023/08/21 07:46:45;;;;;;;19.75;14.77;;;;;;;;;;5037320;28;20488;-66
2023/08/21 07:49:11;;;;;;;20.17;15.10;;;;;;;;;;5037491;28;20108;-66
2023/08/21 07:51:36;;;;;;;18.35;14.75;;;;;;;;;;5037246;28;20063;-66
2023/08/21 07:54:02;;;;;;;20.63;14.65;;;;;;;;;;5037019;28;20028;-66
2023/08/21 07:56:27;;;;;;;16.77;13.43;;;;;;;;;;5037393;28;20449;-66
2023/08/21 07:58:52;;;;;;;14.43;12.60;;;;;;;;;;5019376;28;20458;-66
2023/08/21 08:01:20;;;;;;;18.70;13.85;;;;;;;;;;5018877;28;20048;-66
2023/08/21 08:03:46;;;;;;;14.88;12.80;;;;;;;;;;5037404;28;20166;-66
2023/08/21 08:06:11;;;;;;;13.02;11.43;;;;;;;;;;5030288;28;20034;-66
2023/08/21 08:08:36;;;;;;;32.95;12.40;;;;;;;;;;5001713;28;20381;-66
2023/08/21 08:11:03;;;;;;;20.45;12.73;;;;;;;;;;5015923;28;20033;-66
2023/08/21 08:13:29;;;;;;;209.73;19.50;;;;;;;;;;5028517;28;20036;-66
2023/08/21 08:15:54;;;;;;;22.63;13.02;;;;;;;;;;5035985;28;20393;-66
2023/08/21 08:18:20;;;;;;;92.90;14.48;;;;;;;;;;5018397;28;20087;-66
2023/08/21 08:20:45;;;;;;;15.43;12.93;;;;;;;;;;5036198;28;20481;-66
2023/08/21 08:23:10;;;;;;;15.75;12.93;;;;;;;;;;5035994;28;20074;-66
2023/08/21 08:25:36;;;;;;;14.98;12.93;;;;;;;;;;5035660;28;20064;-66
2023/08/21 08:28:02;;;;;;;16.67;12.20;;;;;;;;;;5036679;28;20052;-66
2023/08/21 08:30:27;;;;;;;13.48;11.27;;;;;;;;;;5036284;28;20034;-66
2023/08/21 08:32:53;;;;;;;12.27;10.93;;;;;;;;;;5036062;28;20473;-66
2023/08/21 08:35:18;;;;;;;15.30;12.38;;;;;;;;;;5018338;28;20481;-66
2023/08/21 08:37:43;;;;;;;14.43;12.88;;;;;;;;;;5035231;28;20040;-66
2023/08/21 08:40:10;;;;;;;16.88;13.75;;;;;;;;;;5035772;28;20013;-66
2023/08/21 08:42:36;;;;;;;17.13;13.75;;;;;;;;;;5035879;28;20065;-66
2023/08/21 08:45:04;;;;;;;14.43;12.98;;;;;;;;;;5035862;28;20061;-66
2023/08/21 08:47:35;;;;;;;16.23;12.75;;;;;;;;;;5035864;28;20036;-66
2023/08/21 08:50:05;;;;;;;15.25;12.05;;;;;;;;;;5036383;28;20032;-66
2023/08/21 08:52:31;;;;;;;12.93;11.47;;;;;;;;;;5035971;28;20043;-66
2023/08/21 08:54:57;;;;;;;13.20;11.25;;;;;;;;;;5035488;28;20358;-66
2023/08/21 08:57:22;;;;;;;14.50;12.88;;;;;;;;;;5018077;28;20024;-66
2023/08/21 08:59:49;;;;;;;14.30;12.90;;;;;;;;;;5035737;28;20033;-66
2023/08/21 09:02:15;;;;;;;14.57;12.98;;;;;;;;;;5036064;28;20025;-66
2023/08/21 09:04:40;;;;;;;14.10;12.57;;;;;;;;;;5018157;28;20036;-66
2023/08/21 09:07:06;;;;;;;14.68;12.88;;;;;;;;;;5017777;28;20025;-66
2023/08/21 09:09:41;;;;;;;13.60;12.25;;;;;;;;;;5035751;28;20029;-66
2023/08/21 09:12:10;;;;;;;16.45;13.07;;;;;;;;;;5035637;28;20029;-66
2023/08/21 09:14:35;;;;;;;15.00;13.37;;;;;;;;;;5029261;28;20044;-66
2023/08/21 09:17:04;;;;;;;14.55;13.00;;;;;;;;;;5001554;28;20485;-66
2023/08/21 09:19:29;;;;;;;15.02;12.63;;;;;;;;;;5015740;28;20486;-66
2023/08/21 09:21:54;;;;;;;12.68;11.38;;;;;;;;;;5027844;28;20110;-67
2023/08/21 09:24:20;;;;;;;13.10;11.68;;;;;;;;;;5016248;28;20045;-66
2023/08/21 09:26:45;;;;;;;12.73;11.50;;;;;;;;;;5035491;28;20060;-66
2023/08/21 09:29:10;;;;;;;13.35;11.90;;;;;;;;;;5035132;28;20461;-66
2023/08/21 09:31:36;;;;;;;11.57;10.38;;;;;;;;;;5035422;28;20469;-66
2023/08/21 09:34:06;;;;;;;11.93;10.77;;;;;;;;;;5035596;28;20113;-66
2023/08/21 09:36:35;;;;;;;13.73;11.30;;;;;;;;;;5035577;28;20116;-61
2023/08/21 09:39:00;;;;;;;11.37;10.33;;;;;;;;;;5035164;28;20084;-61
2023/08/21 09:41:26;;;;;;;12.30;11.20;;;;;;;;;;5034729;28;20029;-61
2023/08/21 09:43:52;;;;;;;11.48;10.43;;;;;;;;;;5034380;28;20021;-61
2023/08/21 09:46:23;;;;;;;12.88;11.52;;;;;;;;;;5034994;28;20493;-61
2023/08/21 09:48:49;;;;;;;13.20;11.82;;;;;;;;;;5034784;28;20033;-61
2023/08/21 09:51:15;;;;;;;13.48;11.32;;;;;;;;;;5034920;28;20029;-61
2023/08/21 09:53:40;;;;;;;12.52;10.95;;;;;;;;;;5034984;28;20445;-62
2023/08/21 09:56:06;;;;;;;13.88;12.40;;;;;;;;;;5016712;28;20033;-62
2023/08/21 09:58:31;;;;;;;14.52;11.30;;;;;;;;;;5034771;28;20100;-61
2023/08/21 10:00:57;;;;;;;12.45;11.30;;;;;;;;;;5034677;28;20033;-61
2023/08/21 10:03:23;;;;;;;11.80;10.60;;;;;;;;;;5017013;28;20021;-60
2023/08/21 10:05:49;;;;;;;11.23;10.13;;;;;;;;;;5034344;28;20097;-65
2023/08/21 10:08:21;;;;;;;12.27;10.75;;;;;;;;;;5034833;28;20029;-66
2023/08/21 10:10:46;;;;;;;12.02;10.85;;;;;;;;;;5034896;28;20091;-66
2023/08/21 10:13:12;;;;;;;15.25;11.70;;;;;;;;;;5034490;28;20030;-66
2023/08/21 10:15:38;;;;;;;12.68;9.70;;;;;;;;;;5034177;28;20069;-66
2023/08/21 10:18:18;;;;;;;11.25;10.10;;;;;;;;;;5034732;28;20075;-66
2023/08/21 10:20:44;;;;;;;11.68;10.63;;;;;;;;;;5016663;28;20087;-66
2023/08/21 10:23:09;;;;;;;12.80;10.82;;;;;;;;;;5034275;28;20033;-67
2023/08/21 10:25:40;;;;;;;12.02;10.82;;;;;;;;;;5034083;28;20073;-66
2023/08/21 10:28:06;;;;;;;13.60;9.82;;;;;;;;;;5016649;28;20111;-61
2023/08/21 10:30:31;;;;;;;12.00;9.00;;;;;;;;;;5016331;28;20488;-61
2023/08/21 10:32:58;;;;;;;10.60;9.60;;;;;;;;;;5026814;28;20470;-61
2023/08/21 10:35:30;;;;;;;11.10;10.05;;;;;;;;;;5020600;28;20030;-61
2023/08/21 10:38:16;;;;;;;12.25;9.57;;;;;;;;;;5012645;28;20401;-61
2023/08/21 10:41:02;;;;;;;14.20;8.75;;;;;;;;;;5032604;28;20041;-61
2023/08/21 10:43:38;;;;;;;17.75;9.27;;;;;;;;;;5033043;28;20033;-61
2023/08/21 10:46:03;;;;;;;14.85;8.60;;;;;;;;;;5032311;28;20390;-61
2023/08/21 10:48:28;;;;;;;10.65;9.60;;;;;;;;;;5026298;28;20025;-66
2023/08/21 10:50:54;;;;;;;11.43;9.85;;;;;;;;;;5033589;28;20370;-67
2023/08/21 10:53:20;;;;;;;10.95;9.90;;;;;;;;;;5014986;28;20437;-61
2023/08/21 10:55:52;;;;;;;10.85;9.20;;;;;;;;;;5025604;28;20033;-61
2023/08/21 10:58:17;;;;;;;23.55;9.45;;;;;;;;;;5014072;28;20030;-61
2023/08/21 11:00:43;;;;;;;11.65;9.65;;;;;;;;;;5014882;28;20033;-60
2023/08/21 11:03:09;;;;;;;9.38;8.50;;;;;;;;;;5025334;28;20104;-61
2023/08/21 11:05:34;;;;;;;9.82;8.82;;;;;;;;;;5026659;28;20116;-61
2023/08/21 11:08:00;;;;;;;10.70;9.63;;;;;;;;;;5024867;28;20369;-61
2023/08/21 11:10:27;;;;;;;10.55;9.63;;;;;;;;;;5022531;28;20076;-61
2023/08/21 11:12:55;;;;;;;9.77;8.98;;;;;;;;;;4996409;28;20061;-61
2023/08/21 11:15:20;;;;;;;9.65;8.32;;;;;;;;;;5013886;28;20034;-61
2023/08/21 11:17:56;;;;;;;10.98;9.98;;;;;;;;;;5003882;28;20033;-61
2023/08/21 11:20:22;;;;;;;12.43;10.63;;;;;;;;;;5015302;28;20026;-61
2023/08/21 11:22:47;;;;;;;15.52;13.93;;;;;;;;;;5023624;28;20418;-61
2023/08/21 11:25:14;;;;;;;14.70;12.13;;;;;;;;;;5013690;28;20038;-61
2023/08/21 11:27:39;;;;;;;11.50;10.18;;;;;;;;;;5013514;28;20044;-61
2023/08/21 11:30:05;;;;;;;29.10;10.35;;;;;;;;;;5019118;28;20112;-61
2023/08/21 11:32:31;;;;;;;11.20;9.43;;;;;;;;;;5025375;28;20045;-61
2023/08/21 11:34:57;;;;;;;149.77;15.23;;;;;;;;;;5032668;28;20426;-61
2023/08/21 11:37:23;;;;;;;10.90;9.80;;;;;;;;;;5033499;28;20025;-61
2023/08/21 11:39:49;;;;;;;69.50;12.63;;;;;;;;;;5033360;28;20129;-61
2023/08/21 11:42:15;;;;;;;14.65;9.68;;;;;;;;;;5031033;28;20443;-61
2023/08/21 11:44:45;;;;;;;11.50;10.30;;;;;;;;;;5032069;28;20112;-61
2023/08/21 11:47:11;;;;;;;11.57;10.27;;;;;;;;;;5033386;28;20076;-60
2023/08/21 11:49:38;;;;;;;10.20;9.18;;;;;;;;;;5033649;28;20018;-60
2023/08/21 11:52:04;;;;;;;9.10;8.30;;;;;;;;;;5033374;28;20112;-60
2023/08/21 11:54:33;;;;;;;10.02;9.05;;;;;;;;;;5033126;28;20049;-61
2023/08/21 11:56:59;;;;;;;19.00;9.90;;;;;;;;;;5033338;28;20032;-60
2023/08/21 11:59:24;;;;;;;9.25;8.48;;;;;;;;;;5015234;28;20029;-60
2023/08/21 12:01:51;;;;;;;9.85;8.85;;;;;;;;;;5032999;28;20040;-61
2023/08/21 12:04:17;;;;;;;10.30;9.13;;;;;;;;;;5033300;28;20025;-61
2023/08/21 12:06:44;;;;;;;13.30;10.43;;;;;;;;;;5033511;28;20057;-60
2023/08/21 12:09:09;;;;;;;14.77;11.93;;;;;;;;;;5032950;28;20041;-60
2023/08/21 12:11:35;;;;;;;15.80;12.18;;;;;;;;;;5015586;28;20088;-61
2023/08/21 12:14:01;;;;;;;15.48;12.23;;;;;;;;;;5035536;28;20042;-62
2023/08/21 12:16:26;;;;;;;19.95;12.60;;;;;;;;;;5036667;28;20051;-61
2023/08/21 12:18:51;;;;;;;18.27;13.35;;;;;;;;;;5036563;28;20060;-61
2023/08/21 12:21:17;;;;;;;18.70;12.60;;;;;;;;;;5019020;28;20040;-61
2023/08/21 12:23:42;;;;;;;25.70;15.18;;;;;;;;;;5036072;28;20017;-61
2023/08/21 12:26:07;;;;;;;28.70;18.67;;;;;;;;;;5036547;28;20038;-61
2023/08/21 12:28:33;;;;;;;26.38;18.70;;;;;;;;;;5036203;28;20030;-62
2023/08/21 12:31:00;;;;;;;40.08;16.38;;;;;;;;;;5018330;28;20504;-61
2023/08/21 12:33:26;;;;;;;20.73;13.68;;;;;;;;;;5036595;28;20021;-61
2023/08/21 12:35:51;;;;;;;29.38;17.85;;;;;;;;;;5036007;28;20049;-61
2023/08/21 12:38:18;;;;;;;29.45;19.05;;;;;;;;;;5034659;28;20087;-61
2023/08/21 12:40:43;;;;;;;27.55;14.98;;;;;;;;;;5035987;28;20021;-61
2023/08/21 12:43:09;;;;;;;22.92;15.23;;;;;;;;;;5002015;28;20075;-61
2023/08/21 12:45:36;;;;;;;22.88;15.77;;;;;;;;;;5018341;28;20107;-61
2023/08/21 12:48:03;;;;;;;19.88;14.07;;;;;;;;;;5036257;28;20531;-61
2023/08/21 12:50:29;;;;;;;18.95;13.38;;;;;;;;;;5018246;28;20499;-66
2023/08/21 12:52:54;;;;;;;107.25;17.90;;;;;;;;;;5035950;28;20034;-67
2023/08/21 12:55:19;;;;;;;23.08;15.20;;;;;;;;;;5035760;28;20032;-67
2023/08/21 12:57:45;;;;;;;22.65;13.20;;;;;;;;;;5001398;28;20439;-66
2023/08/21 13:00:11;;;;;;;22.55;15.02;;;;;;;;;;5035836;28;20037;-67
2023/08/21 13:02:37;;;;;;;21.77;14.55;;;;;;;;;;5035901;28;20017;-67
2023/08/21 13:05:03;;;;;;;23.80;14.07;;;;;;;;;;5035888;28;20450;-67
2023/08/21 13:07:28;;;;;;;24.50;16.02;;;;;;;;;;5035775;28;20037;-67
2023/08/21 13:09:54;;;;;;;24.08;13.07;;;;;;;;;;5035699;28;20056;-67
2023/08/21 13:12:19;;;;;;;23.85;14.35;;;;;;;;;;5035665;28;20026;-67
2023/08/21 13:14:46;;;;;;;19.33;14.77;;;;;;;;;;5017650;28;20477;-67
2023/08/21 13:17:11;;;;;;;22.58;15.27;;;;;;;;;;5017364;28;20029;-67
2023/08/21 13:19:37;;;;;;;21.25;14.70;;;;;;;;;;5017763;28;20021;-68
2023/08/21 13:22:02;;;;;;;21.48;15.90;;;;;;;;;;5035721;28;20064;-67
2023/08/21 13:24:28;;;;;;;22.50;14.73;;;;;;;;;;5034516;28;20103;-67
2023/08/21 13:26:53;;;;;;;31.63;20.48;;;;;;;;;;5035493;28;20072;-67
2023/08/21 13:29:19;;;;;;;22.92;16.02;;;;;;;;;;5017459;28;20030;-67
2023/08/21 13:31:44;;;;;;;27.33;18.55;;;;;;;;;;5034974;28;20094;-67
2023/08/21 13:34:10;;;;;;;27.55;19.30;;;;;;;;;;5034977;28;20025;-67
2023/08/21 13:36:35;;;;;;;28.77;16.85;;;;;;;;;;5017535;28;20040;-67
2023/08/21 13:39:00;;;;;;;27.90;17.98;;;;;;;;;;5031369;28;20469;-67
2023/08/21 13:41:26;;;;;;;24.75;15.43;;;;;;;;;;5015385;28;20497;-67
2023/08/21 13:43:51;;;;;;;22.23;14.98;;;;;;;;;;5015570;28;20044;-67
2023/08/21 13:46:17;;;;;;;20.23;15.85;;;;;;;;;;5015400;28;20022;-67
2023/08/21 13:48:43;;;;;;;19.42;14.85;;;;;;;;;;4997719;28;20041;-67
2023/08/21 13:51:08;;;;;;;19.27;14.55;;;;;;;;;;5014881;28;20366;-67
2023/08/21 13:53:34;;;;;;;15.60;13.10;;;;;;;;;;4981305;28;20085;-67
2023/08/21 13:55:59;;;;;;;16.80;11.40;;;;;;;;;;5015333;28;20144;-67
2023/08/21 13:58:25;;;;;;;16.35;11.63;;;;;;;;;;4997489;28;20034;-67
2023/08/21 14:00:50;;;;;;;15.50;11.68;;;;;;;;;;5014962;28;20026;-67
2023/08/21 14:03:16;;;;;;;15.93;12.60;;;;;;;;;;5014648;28;20029;-67
2023/08/21 14:05:41;;;;;;;12.98;11.70;;;;;;;;;;5014877;28;20038;-67
2023/08/21 14:08:06;;;;;;;15.40;11.93;;;;;;;;;;5014568;28;20049;-67
2023/08/21 14:10:32;;;;;;;13.70;12.18;;;;;;;;;;5014726;28;20022;-67
2023/08/21 14:12:57;;;;;;;14.18;12.05;;;;;;;;;;5014682;28;20030;-67
2023/08/21 14:15:23;;;;;;;15.70;12.05;;;;;;;;;;5014628;28;20022;-67
2023/08/21 14:17:49;;;;;;;12.00;10.68;;;;;;;;;;5014854;28;20065;-67